MMMA/MAM METAR and TAF weather

Enter ICAO airport designator
Station Type Date Time Source
MMMA METAR 2019/06/19 00:46 UTC NOAA

MMMA 190046Z 13012KT 7SM FEW020 SCT200 30/25 A2984 RMK 8/104 HZY


Station Type Date Time Source
MMMA Decoded METAR 2019/06/19 00:46 UTC NOAA

Matamoros International , Mexico (MMMA) 25-46N 097-32W
Jun 18, 2019 - 08:46 PM EDT / 2019.06.19 0046 UTC
Wind: from the SE (130 degrees) at 14 MPH (12 KT):0
Visibility: 7 mile(s):0
Sky conditions: partly cloudy
Temperature: 86 F (30 C)
Heat index: 96.8 F (36.0 C):1
Dew Point: 77 F (25 C)
Relative Humidity: 74%
Pressure (altimeter): 29.84 in. Hg (1010 hPa)
ob: MMMA 190046Z 13012KT 7SM FEW020 SCT200 30/25 A2984 RMK 8/104 HZY
cycle: 1

Station Type Date Time Source
MMMA TAF 2019/06/18 18:27 UTC NOAA

TAF MMMA 181720Z 1818/1918 14012KT P6SM BKN020CB
FM182000 14012G22KT P6SM SCT030
FM190300 12010KT P6SM SKC
FM191300 14010KT 5SM HZ BKN015

Example: see airport list